createdAt,value
2022-12-29T00:00:57.025Z,86.20
2022-12-29T00:03:24.212Z,86.20
2022-12-29T00:05:58.725Z,86.20
2022-12-29T00:08:40.824Z,86.30
2022-12-29T00:11:16.851Z,86.30
2022-12-29T00:14:03.027Z,86.30
2022-12-29T00:16:31.145Z,86.30
2022-12-29T00:18:58.555Z,86.30
2022-12-29T00:21:45.080Z,86.20
2022-12-29T00:24:26.882Z,86.20
2022-12-29T00:27:22.914Z,85.90
2022-12-29T00:30:08.987Z,85.80
2022-12-29T00:32:54.885Z,85.70
2022-12-29T00:35:36.198Z,85.70
2022-12-29T00:38:24.617Z,85.50
2022-12-29T00:41:23.840Z,85.40
2022-12-29T00:44:05.994Z,85.00
2022-12-29T00:46:36.752Z,85.00
2022-12-29T00:49:23.120Z,84.90
2022-12-29T00:51:50.292Z,84.90
2022-12-29T00:54:18.174Z,85.00
2022-12-29T00:56:50.870Z,85.10
2022-12-29T00:59:18.915Z,85.10
2022-12-29T01:01:46.564Z,85.20
2022-12-29T01:04:13.960Z,85.20
2022-12-29T01:06:42.248Z,85.30
2022-12-29T01:09:28.726Z,85.40
2022-12-29T01:11:56.275Z,85.50
2022-12-29T01:14:24.097Z,85.70
2022-12-29T01:16:51.540Z,85.80
2022-12-29T01:19:19.501Z,86.10
2022-12-29T01:21:47.702Z,86.20
2022-12-29T01:24:16.091Z,86.40
2022-12-29T01:26:43.996Z,86.60
2022-12-29T01:29:11.128Z,86.70
2022-12-29T01:31:38.442Z,86.80
2022-12-29T01:34:05.988Z,86.80
2022-12-29T01:36:33.145Z,86.90
2022-12-29T01:39:00.178Z,87.00
2022-12-29T01:41:27.470Z,87.00
2022-12-29T01:44:02.853Z,87.10
2022-12-29T01:46:42.771Z,87.20
2022-12-29T01:49:14.238Z,87.20
2022-12-29T01:51:49.764Z,87.30
2022-12-29T01:54:26.711Z,87.30
2022-12-29T01:56:58.446Z,87.30
2022-12-29T01:59:33.930Z,87.00
2022-12-29T02:02:02.340Z,86.80
2022-12-29T02:04:32.835Z,86.50
2022-12-29T02:07:05.400Z,86.40
2022-12-29T02:09:32.743Z,86.10
2022-12-29T02:12:00.690Z,86.00
2022-12-29T02:14:27.696Z,86.00
2022-12-29T02:17:12.532Z,86.00
2022-12-29T02:19:58.657Z,86.00
2022-12-29T02:22:55.652Z,85.70
2022-12-29T02:25:54.539Z,85.60
2022-12-29T02:28:57.616Z,85.50
2022-12-29T02:31:57.157Z,85.40
2022-12-29T02:34:55.843Z,85.30
2022-12-29T02:37:40.274Z,85.20
2022-12-29T02:40:13.274Z,85.10
2022-12-29T02:43:03.217Z,85.00
2022-12-29T02:45:42.142Z,84.90
2022-12-29T02:48:33.836Z,84.90
2022-12-29T02:51:04.779Z,84.90
2022-12-29T02:53:54.286Z,84.90
2022-12-29T02:56:22.235Z,84.80
2022-12-29T02:58:49.230Z,84.80
2022-12-29T03:01:30.914Z,84.90
2022-12-29T03:04:14.511Z,85.00
2022-12-29T03:06:54.284Z,85.20
2022-12-29T03:09:43.467Z,85.30
2022-12-29T03:12:13.529Z,85.30
2022-12-29T03:15:21.735Z,85.40
2022-12-29T03:18:23.452Z,85.50
2022-12-29T03:21:01.229Z,85.50
2022-12-29T03:23:29.548Z,85.40
2022-12-29T03:26:02.965Z,85.40
2022-12-29T03:28:36.120Z,85.50
2022-12-29T03:31:05.558Z,85.50
2022-12-29T03:33:34.653Z,85.50
2022-12-29T03:36:06.753Z,85.50
2022-12-29T03:38:39.783Z,85.60
2022-12-29T03:41:12.215Z,85.60
2022-12-29T03:43:39.507Z,85.60
2022-12-29T03:46:06.810Z,85.70
2022-12-29T03:48:34.853Z,85.70
2022-12-29T03:51:01.901Z,85.70
2022-12-29T03:53:28.932Z,85.60
2022-12-29T03:55:55.992Z,85.50
2022-12-29T03:58:23.837Z,85.30
2022-12-29T04:01:06.301Z,85.20
2022-12-29T04:03:36.778Z,85.00
2022-12-29T04:06:05.157Z,84.90
2022-12-29T04:08:40.785Z,84.80
2022-12-29T04:11:07.877Z,84.80
2022-12-29T04:13:34.992Z,84.60
2022-12-29T04:16:02.341Z,84.40
2022-12-29T04:18:29.363Z,84.30
2022-12-29T04:21:03.682Z,84.20
2022-12-29T04:23:35.647Z,84.20
2022-12-29T04:26:04.804Z,84.20
2022-12-29T04:28:31.845Z,84.10
2022-12-29T04:31:31.330Z,84.20
2022-12-29T04:34:00.889Z,84.20
2022-12-29T04:36:30.265Z,84.00
2022-12-29T04:38:58.278Z,84.00
2022-12-29T04:41:26.011Z,83.90
2022-12-29T04:43:54.242Z,83.90
2022-12-29T04:46:50.251Z,83.90
2022-12-29T04:49:29.273Z,83.90
2022-12-29T04:52:16.538Z,83.90
2022-12-29T04:54:46.392Z,83.90
2022-12-29T04:57:18.515Z,83.80
2022-12-29T04:59:50.498Z,83.80
2022-12-29T05:02:18.582Z,83.70
2022-12-29T05:04:47.572Z,83.70
2022-12-29T05:07:14.955Z,83.60
2022-12-29T05:09:42.058Z,83.60
2022-12-29T05:12:09.203Z,83.50
2022-12-29T05:14:40.651Z,83.50
2022-12-29T05:17:08.479Z,83.40
2022-12-29T05:19:36.033Z,83.40
2022-12-29T05:22:03.488Z,83.40
2022-12-29T05:24:31.183Z,83.50
2022-12-29T05:26:58.529Z,83.40
2022-12-29T05:29:38.354Z,83.40
2022-12-29T05:32:05.573Z,83.30
2022-12-29T05:34:32.658Z,83.20
2022-12-29T05:37:00.380Z,83.00
2022-12-29T05:39:27.448Z,82.90
2022-12-29T05:41:58.955Z,82.80
2022-12-29T05:44:33.496Z,82.70
2022-12-29T05:47:20.859Z,82.60
2022-12-29T05:50:00.981Z,82.50
2022-12-29T05:52:48.353Z,82.40
2022-12-29T05:55:15.661Z,82.30
2022-12-29T05:57:44.855Z,82.10
2022-12-29T06:00:15.379Z,82.20
2022-12-29T06:02:43.713Z,82.10
2022-12-29T06:05:11.107Z,82.00
2022-12-29T06:07:39.937Z,81.90
2022-12-29T06:10:07.981Z,81.90
2022-12-29T06:12:43.528Z,81.70
2022-12-29T06:15:11.339Z,81.70
2022-12-29T06:17:41.709Z,81.70
2022-12-29T06:20:09.642Z,81.60
2022-12-29T06:22:37.197Z,81.50
2022-12-29T06:25:05.488Z,81.40
2022-12-29T06:27:34.591Z,81.20
2022-12-29T06:30:01.712Z,81.20
2022-12-29T06:32:29.292Z,81.00
2022-12-29T06:35:01.504Z,81.00
2022-12-29T06:37:28.655Z,80.40
2022-12-29T06:39:55.659Z,80.40
2022-12-29T06:42:26.741Z,80.40
2022-12-29T06:45:12.203Z,80.40
2022-12-29T06:47:39.325Z,80.00
2022-12-29T06:50:06.679Z,79.70
2022-12-29T06:52:33.869Z,79.60
2022-12-29T06:55:00.896Z,79.60
2022-12-29T06:57:27.937Z,79.50
2022-12-29T06:59:56.761Z,79.30
2022-12-29T07:02:26.367Z,79.30
2022-12-29T07:04:53.778Z,79.40
2022-12-29T07:07:21.457Z,79.50
2022-12-29T07:09:48.611Z,79.50
2022-12-29T07:12:15.618Z,79.60
2022-12-29T07:14:43.661Z,79.70
2022-12-29T07:17:10.948Z,79.40
2022-12-29T07:19:38.118Z,79.20
2022-12-29T07:22:05.139Z,79.30
2022-12-29T07:24:32.231Z,79.30
2022-12-29T07:26:59.178Z,79.30
2022-12-29T07:29:26.211Z,79.20
2022-12-29T07:31:54.357Z,79.20
2022-12-29T07:34:21.636Z,78.80
2022-12-29T07:36:48.611Z,78.80
2022-12-29T07:39:15.681Z,78.70
2022-12-29T07:41:42.609Z,78.80
2022-12-29T07:44:16.396Z,78.60
2022-12-29T07:47:02.436Z,78.70
2022-12-29T07:49:29.566Z,78.20
2022-12-29T07:51:56.553Z,78.50
2022-12-29T07:54:24.332Z,78.50
2022-12-29T07:56:52.099Z,78.30
2022-12-29T07:59:19.287Z,78.50
2022-12-29T08:01:46.360Z,78.20
2022-12-29T08:04:13.471Z,78.40
2022-12-29T08:06:40.439Z,78.20
2022-12-29T08:09:14.741Z,78.50
2022-12-29T08:11:44.488Z,78.50
2022-12-29T08:14:11.909Z,78.50
2022-12-29T08:16:39.043Z,78.60
2022-12-29T08:19:06.158Z,78.50
2022-12-29T08:21:33.215Z,78.50
2022-12-29T08:24:00.483Z,78.50
2022-12-29T08:26:27.566Z,78.50
2022-12-29T08:28:56.730Z,78.60
2022-12-29T08:31:24.258Z,78.50
2022-12-29T08:33:51.806Z,78.60
2022-12-29T08:36:18.808Z,78.60
2022-12-29T08:38:45.755Z,78.50
2022-12-29T08:41:12.961Z,78.30
2022-12-29T08:43:40.154Z,78.40
2022-12-29T08:46:07.180Z,78.40
2022-12-29T08:48:34.190Z,78.50
2022-12-29T08:51:01.355Z,78.60
2022-12-29T08:53:28.413Z,78.40
2022-12-29T08:56:05.084Z,78.50
2022-12-29T08:58:41.706Z,78.60
2022-12-29T09:01:10.282Z,78.70
2022-12-29T09:04:12.993Z,78.70
2022-12-29T09:06:24.893Z,78.70
2022-12-29T09:08:51.877Z,78.60
2022-12-29T09:11:24.459Z,78.70
2022-12-29T09:13:52.184Z,78.70
2022-12-29T09:16:21.478Z,78.70
2022-12-29T09:18:48.758Z,78.70
2022-12-29T09:21:15.902Z,78.60
2022-12-29T09:23:43.083Z,78.60
2022-12-29T09:26:10.414Z,78.70
2022-12-29T09:28:37.801Z,78.70
2022-12-29T09:31:04.948Z,78.80
2022-12-29T09:33:34.330Z,79.00
2022-12-29T09:36:01.403Z,79.10
2022-12-29T09:38:29.234Z,79.20
2022-12-29T09:41:02.474Z,79.30
2022-12-29T09:43:35.481Z,79.30
2022-12-29T09:46:24.159Z,79.10
2022-12-29T09:49:29.031Z,79.00
2022-12-29T09:52:04.132Z,78.90
2022-12-29T09:54:39.090Z,78.90
2022-12-29T09:57:31.060Z,78.90
2022-12-29T10:00:04.377Z,78.90
2022-12-29T10:02:44.309Z,78.90
2022-12-29T10:05:18.302Z,79.00
2022-12-29T10:08:01.511Z,79.00
2022-12-29T10:10:36.206Z,79.10
2022-12-29T10:13:29.492Z,78.90
2022-12-29T10:16:16.731Z,78.80
2022-12-29T10:19:00.463Z,78.50
2022-12-29T10:21:44.164Z,78.50
2022-12-29T10:24:13.233Z,78.50
2022-12-29T10:26:46.196Z,78.60
2022-12-29T10:29:23.036Z,78.70
2022-12-29T10:32:00.282Z,78.90
2022-12-29T10:34:34.521Z,78.70
2022-12-29T10:37:10.941Z,78.70
2022-12-29T10:39:50.558Z,78.80
2022-12-29T10:42:37.924Z,78.30
2022-12-29T10:45:06.589Z,78.30
2022-12-29T10:47:52.669Z,78.50
2022-12-29T10:50:20.458Z,78.60
2022-12-29T10:52:49.134Z,78.70
2022-12-29T10:55:29.093Z,78.60
2022-12-29T10:58:00.510Z,78.60
2022-12-29T11:00:27.538Z,78.80
2022-12-29T11:03:27.571Z,78.80
2022-12-29T11:06:14.531Z,78.90
2022-12-29T11:09:13.008Z,78.90
2022-12-29T11:11:40.079Z,78.70
2022-12-29T11:14:18.774Z,78.60
2022-12-29T11:16:46.335Z,78.60
2022-12-29T11:19:39.047Z,78.30
2022-12-29T11:22:24.185Z,78.30
2022-12-29T11:24:53.684Z,78.30
2022-12-29T11:27:24.993Z,78.40
2022-12-29T11:29:53.867Z,78.40
2022-12-29T11:32:30.736Z,78.30
2022-12-29T11:34:59.820Z,78.40
2022-12-29T11:37:35.604Z,78.30
2022-12-29T11:40:06.560Z,78.30
2022-12-29T11:42:37.889Z,78.20
2022-12-29T11:45:21.707Z,78.20
2022-12-29T11:47:53.060Z,78.10
2022-12-29T11:50:27.681Z,78.00
2022-12-29T11:53:18.285Z,78.00
2022-12-29T11:56:00.635Z,78.00
2022-12-29T11:58:35.735Z,77.80
2022-12-29T12:01:08.233Z,77.50
2022-12-29T12:03:41.789Z,77.10
2022-12-29T12:06:15.582Z,76.40
2022-12-29T12:08:51.222Z,76.50
2022-12-29T12:11:37.399Z,76.50
2022-12-29T12:14:24.380Z,76.50
2022-12-29T12:17:22.286Z,76.30
2022-12-29T12:20:02.211Z,75.80
2022-12-29T12:22:54.274Z,75.30
2022-12-29T12:25:24.690Z,75.30
2022-12-29T12:28:20.235Z,75.60
2022-12-29T12:30:51.413Z,75.90
2022-12-29T12:33:32.485Z,75.40
2022-12-29T12:36:27.681Z,75.20
2022-12-29T12:39:00.480Z,75.20
2022-12-29T12:41:30.370Z,75.20
2022-12-29T12:44:13.402Z,75.20
2022-12-29T12:46:51.666Z,75.60
2022-12-29T12:49:27.691Z,76.20
2022-12-29T12:52:22.737Z,76.80
2022-12-29T12:55:42.011Z,77.60
2022-12-29T12:58:37.294Z,78.10
2022-12-29T13:01:27.543Z,78.70
2022-12-29T13:04:25.086Z,79.30
2022-12-29T13:07:10.832Z,79.30
2022-12-29T13:09:55.917Z,79.00
2022-12-29T13:12:57.689Z,79.10
2022-12-29T13:15:30.783Z,79.00
2022-12-29T13:18:23.562Z,78.70
2022-12-29T13:20:59.487Z,78.40
2022-12-29T13:23:44.731Z,77.90
2022-12-29T13:26:14.726Z,77.00
2022-12-29T13:29:02.089Z,76.00
2022-12-29T13:31:53.642Z,76.10
2022-12-29T13:34:32.745Z,76.30
2022-12-29T13:37:02.665Z,76.60
2022-12-29T13:39:36.070Z,77.70
2022-12-29T13:42:05.617Z,78.30
2022-12-29T13:44:36.449Z,78.60
2022-12-29T13:47:24.217Z,78.90
2022-12-29T13:49:52.710Z,79.50
2022-12-29T13:53:07.447Z,79.80
2022-12-29T13:55:50.900Z,80.20
2022-12-29T13:58:36.168Z,80.50
2022-12-29T14:01:22.674Z,80.70
2022-12-29T14:03:55.565Z,81.00
2022-12-29T14:06:31.570Z,81.20
2022-12-29T14:09:04.305Z,81.20
2022-12-29T14:11:37.152Z,81.20
2022-12-29T14:14:31.598Z,81.10
2022-12-29T14:17:14.841Z,81.10
2022-12-29T14:19:44.816Z,81.10
2022-12-29T14:22:13.051Z,81.10
2022-12-29T14:24:46.726Z,80.90
2022-12-29T14:27:13.704Z,80.50
2022-12-29T14:29:40.640Z,80.50
2022-12-29T14:32:26.046Z,78.70
2022-12-29T14:34:54.091Z,77.90
2022-12-29T14:37:34.180Z,77.00
2022-12-29T14:40:05.703Z,76.90
2022-12-29T14:42:33.402Z,76.80
2022-12-29T14:45:16.530Z,77.10
2022-12-29T14:47:52.011Z,77.50
2022-12-29T14:50:43.827Z,77.90
2022-12-29T14:53:49.211Z,78.30
2022-12-29T14:56:19.754Z,78.70
2022-12-29T14:58:52.633Z,79.30
2022-12-29T15:01:34.044Z,79.60
2022-12-29T15:04:14.294Z,80.00
2022-12-29T15:06:42.910Z,80.20
2022-12-29T15:09:27.721Z,80.60
2022-12-29T15:12:02.376Z,80.70
2022-12-29T15:14:50.629Z,81.00
2022-12-29T15:17:29.171Z,81.00
2022-12-29T15:19:58.096Z,81.00
2022-12-29T15:22:25.769Z,81.00
2022-12-29T15:24:54.669Z,81.00
2022-12-29T15:27:26.389Z,81.10
2022-12-29T15:30:13.848Z,81.10
2022-12-29T15:32:46.133Z,81.20
2022-12-29T15:35:30.794Z,81.20
2022-12-29T15:37:58.700Z,81.30
2022-12-29T15:40:27.739Z,81.30
2022-12-29T16:05:19.706Z,81.70
2022-12-29T16:07:58.525Z,82.10
2022-12-29T16:10:39.270Z,82.00
2022-12-29T16:13:40.015Z,81.90
2022-12-29T16:16:21.364Z,81.80
2022-12-29T16:18:53.445Z,81.80
2022-12-29T16:21:36.703Z,81.70
2022-12-29T16:24:08.166Z,81.60
2022-12-29T16:26:35.431Z,81.60
2022-12-29T16:29:06.116Z,81.40
2022-12-29T16:31:54.230Z,81.40
2022-12-29T16:34:26.320Z,81.50
2022-12-29T16:36:56.558Z,81.50
2022-12-29T16:54:57.525Z,81.10
2022-12-29T16:57:31.058Z,80.00
2022-12-29T17:00:02.230Z,80.10
2022-12-29T17:02:31.427Z,80.20
2022-12-29T17:04:58.625Z,80.20
2022-12-29T17:07:28.158Z,80.40
2022-12-29T17:09:55.517Z,80.40
2022-12-29T17:12:26.451Z,80.60
2022-12-29T17:15:00.113Z,80.60
2022-12-29T17:17:41.708Z,80.70
2022-12-29T17:20:19.846Z,80.90
2022-12-29T17:22:47.925Z,80.90
2022-12-29T17:25:31.538Z,81.00
2022-12-29T17:28:14.002Z,81.10
2022-12-29T17:30:41.170Z,81.20
2022-12-29T17:33:13.339Z,81.20
2022-12-29T17:35:40.458Z,81.20
2022-12-29T17:38:24.039Z,81.20
2022-12-29T17:40:51.347Z,81.20
2022-12-29T17:43:18.830Z,81.10
2022-12-29T17:45:50.939Z,81.10
2022-12-29T17:48:19.339Z,81.10
2022-12-29T17:50:49.750Z,81.10
2022-12-29T17:53:24.243Z,81.10
2022-12-29T17:55:52.194Z,81.20
2022-12-29T17:58:24.544Z,81.20
2022-12-29T18:00:54.281Z,81.30
2022-12-29T18:03:29.299Z,81.30
2022-12-29T18:22:46.466Z,81.30
2022-12-29T18:25:30.577Z,81.30
2022-12-29T18:27:57.646Z,81.30
2022-12-29T18:30:24.608Z,81.30
2022-12-29T18:32:51.690Z,81.20
2022-12-29T18:35:39.411Z,81.20
2022-12-29T18:38:06.690Z,81.20
2022-12-29T18:40:34.852Z,81.20
2022-12-29T18:43:02.430Z,81.20
2022-12-29T18:45:32.587Z,81.20
2022-12-29T18:48:02.592Z,81.30
2022-12-29T18:50:29.649Z,81.30
2022-12-29T18:53:03.422Z,81.40
2022-12-29T18:55:31.079Z,81.50
2022-12-29T18:57:58.329Z,81.50
2022-12-29T19:00:25.417Z,81.60
2022-12-29T19:02:52.891Z,81.60
2022-12-29T19:05:26.596Z,81.60
2022-12-29T19:07:54.468Z,81.60
2022-12-29T19:10:23.541Z,81.60
2022-12-29T19:12:51.200Z,81.50
2022-12-29T19:15:36.048Z,81.50
2022-12-29T19:18:42.341Z,81.60
2022-12-29T19:20:54.707Z,81.60
2022-12-29T19:23:24.548Z,81.60
2022-12-29T19:25:53.432Z,81.60
2022-12-29T19:28:25.740Z,81.70
2022-12-29T19:30:57.243Z,81.70
2022-12-29T19:33:24.622Z,81.70
2022-12-29T19:35:52.697Z,81.60
2022-12-29T19:38:20.263Z,81.60
2022-12-29T19:40:51.022Z,81.60
2022-12-29T19:43:18.923Z,81.60
2022-12-29T19:45:46.509Z,81.60
2022-12-29T19:48:15.821Z,81.60
2022-12-29T19:50:43.616Z,81.70
2022-12-29T19:53:11.499Z,81.70
2022-12-29T19:55:45.082Z,81.70
2022-12-29T19:58:12.561Z,81.70
2022-12-29T20:00:43.646Z,81.70
2022-12-29T20:03:11.077Z,81.60
2022-12-29T20:05:39.329Z,81.60
2022-12-29T20:08:06.649Z,81.60
2022-12-29T20:10:33.884Z,81.60
2022-12-29T20:13:00.911Z,81.60
2022-12-29T20:15:30.451Z,81.60
2022-12-29T20:18:14.507Z,81.50
2022-12-29T20:20:42.539Z,81.60
2022-12-29T20:23:09.538Z,81.50
2022-12-29T20:25:45.616Z,81.50
2022-12-29T20:28:13.639Z,81.50
2022-12-29T20:30:40.695Z,81.50
2022-12-29T20:33:08.717Z,81.50
2022-12-29T20:35:37.074Z,81.50
2022-12-29T20:38:04.800Z,81.40
2022-12-29T20:40:32.009Z,81.40
2022-12-29T20:42:59.149Z,81.40
2022-12-29T20:45:26.504Z,81.30
2022-12-29T20:47:54.783Z,81.30
2022-12-29T20:50:21.836Z,81.30
2022-12-29T20:52:51.244Z,81.20
2022-12-29T20:55:18.266Z,81.20
2022-12-29T20:58:21.838Z,81.20
2022-12-29T21:00:33.109Z,81.30
2022-12-29T21:03:01.224Z,81.30
2022-12-29T21:05:29.205Z,81.40
2022-12-29T21:07:59.755Z,81.40
2022-12-29T21:10:26.960Z,81.40
2022-12-29T21:12:53.954Z,81.50
2022-12-29T21:15:21.061Z,81.50
2022-12-29T21:17:48.905Z,81.50
2022-12-29T21:20:29.996Z,81.50
2022-12-29T21:22:59.823Z,81.50
2022-12-29T21:25:36.796Z,81.60
2022-12-29T21:28:05.767Z,81.60
2022-12-29T21:30:33.560Z,81.70
2022-12-29T21:33:01.148Z,81.70
2022-12-29T21:35:28.322Z,81.70
2022-12-29T21:37:55.316Z,81.70
2022-12-29T21:40:22.770Z,81.70
2022-12-29T21:42:49.983Z,81.80
2022-12-29T21:45:25.898Z,81.80
2022-12-29T21:48:13.146Z,81.80
2022-12-29T21:51:01.396Z,81.80
2022-12-29T21:53:38.982Z,81.80
2022-12-29T21:56:14.436Z,81.80
2022-12-29T21:59:02.924Z,81.80
2022-12-29T22:01:50.155Z,81.80
2022-12-29T22:04:38.503Z,81.90
2022-12-29T22:07:26.057Z,81.90
2022-12-29T22:10:12.007Z,81.90
2022-12-29T22:13:00.021Z,82.00
2022-12-29T22:15:29.075Z,82.00
2022-12-29T22:17:56.924Z,82.00
2022-12-29T22:20:26.548Z,82.00
2022-12-29T22:22:53.786Z,82.00
2022-12-29T22:25:21.286Z,82.10
2022-12-29T22:27:52.866Z,82.10
2022-12-29T22:30:21.492Z,82.10
2022-12-29T22:32:48.447Z,82.20
2022-12-29T22:35:15.469Z,82.20
2022-12-29T22:37:45.835Z,82.20
2022-12-29T22:40:13.279Z,82.20
2022-12-29T22:42:40.377Z,82.20
2022-12-29T22:45:08.264Z,82.20
2022-12-29T22:47:35.587Z,82.30
2022-12-29T22:50:02.893Z,82.30
2022-12-29T22:52:29.889Z,82.30
2022-12-29T22:55:01.649Z,82.30
2022-12-29T22:57:31.844Z,82.30
2022-12-29T22:59:58.814Z,82.30
2022-12-29T23:02:26.219Z,82.30
2022-12-29T23:05:08.706Z,82.30
2022-12-29T23:07:36.057Z,82.40
2022-12-29T23:10:04.633Z,82.40
2022-12-29T23:12:32.246Z,82.40
2022-12-29T23:14:59.210Z,82.50
2022-12-29T23:17:26.574Z,82.50
2022-12-29T23:19:53.819Z,82.50
2022-12-29T23:22:21.146Z,82.50
2022-12-29T23:24:48.125Z,82.50
2022-12-29T23:27:15.204Z,82.50
2022-12-29T23:29:42.153Z,82.60
2022-12-29T23:32:09.304Z,82.60
2022-12-29T23:34:36.260Z,82.60
2022-12-29T23:37:03.317Z,82.60
2022-12-29T23:39:30.737Z,82.60
2022-12-29T23:41:58.085Z,82.70
2022-12-29T23:44:25.064Z,82.70
2022-12-29T23:46:52.231Z,82.80
2022-12-29T23:49:19.295Z,82.80
2022-12-29T23:51:46.289Z,82.90
2022-12-29T23:54:13.392Z,82.90
2022-12-29T23:56:40.372Z,82.90
2022-12-29T23:59:07.601Z,82.90
